Delta Junction, AK (99737)

7:39 AM AKDT on August 30, 2015 (GMT -0800)
AK_Meso | | Change Station
CLOSE
Current Station
Personal Weather Station
Location: Delta Junction, AK
Elevation: 1381 ft
Nearby Weather Stations

Elev 1381 ft 63.94 °N, 145.60 °W | Updated 24 minutes ago

Light Snow
Light Snow Mist
33 °F
Feels Like 26 °F
N
9
Wind Variable Wind from WNW
Gusts 17.0 mph

Today
High -- | Low -- °F
--% Chance of Precip.
Yesterday
High -- | Low -- °F
Precip. -- in
6:18 AM 9:04 PM
Full, 99% visible
Pressure 29.42 in
Visibility 2.0 miles
Clouds Overcast 800 ft
Windchill 26 °F
Dew Point 31 °F
Humidity 94%
Rainfall in
Snow Depth Not available.
UV 0 out of 12
Pollen Not available.
Air Quality Not available.
Flu Activity Not available.
SPECI PABI 301534Z 30011KT 2SM -SN BR OVC008 00/00 A2942 RMK AO2 P0000 T00000000
Pressure 29.42 in
Visibility 2.0 miles
Clouds Overcast 800 ft
Windchill 26 °F
Dew Point 31 °F
Humidity 94%
Rainfall in
Snow Depth Not available.
UV 0 out of 12
Pollen Not available.
Air Quality Not available.
Flu Activity Not available.
SPECI PABI 301534Z 30011KT 2SM -SN BR OVC008 00/00 A2942 RMK AO2 P0000 T00000000

10-Day Weather Forecast

×

Almanac

Astronomy

Aug. 30, 2015 Rise Set
Actual Time
Civil Twilight
Nautical Twilight
Astronomical Twilight
Moon
Length of Visible Light
Length of Day
Tomorrow will be .
, % of the Moon is Illuminated

Today's Extremes

State Highs State Lows

Community

WunderPhotos

Upload Photos

1,850,996 photos uploaded!

WunderBlogs® & News

Nearby

Air Quality

  Air Quality AQ Index Pollutant
Not available.

Snow Depth

Station Depth Elevation

Earthquake Activity

City Distance Mag. Time & Date
Minimum magnitude displayed is 2.5.

Coastal Water Temperatures

Place Temperature

Stations

Nearby Weather Stations

Station Location Temp. Windchill Dew Point Humidity Wind Precip. Elev Updated Type